Hovedside
METAR-TAF:

METAR-TAF

Lufthavner :

Roskilde lufthavn

Roskilde, Danmark

breddegrad: 55-35N, lengdegrad: 012-08E, høyde over havet: 44 m

Gjeldene værobservasjon

Denne rapporten ble laget for 40 minutter siden, klokken 13:50 UTC
Vind 12 kt fra Nordvest med vindkast opp mot 27 kt, skiftende mellom Vest-nordvest og Nord
Temperatur 25°C
Luftfuktighet 54%
Trykk 1014 hPa
Sikt 10 km eller mer

METAR: EKRK 181350Z AUTO 32012G27KT 290V350 9999NDV SCT100/// 25/15 Q1014

Tid: 16:30 (14:30 UTC)

Varsel

Denne rapporten ble laget for 2 timer og 59 minutter siden, klokken 11:31 UTC
Varsel gyldig fra 18. klokken 12 UTC til 18. klokken 21 UTC
Vind 8 kt fra Vest-nordvest
Sikt 10 km eller mer
ingen skyer under 1500 m og ingen bygeskyer

TAF: EKRK 181131Z 1812/1821 30008KT CAVOK

Værobservasjoner og værvarsel for over 4000 flyplasser (METAR- og TAF-rapporter).

Tilgjengelige stasjoner er representert av de røde og gule prikkene på kartet.

Hold musepekeren over prikken for å se navnet på stasjonen.

Klikk så for å se værobservasjoner og -varsler.

For å forandre kartet kan du klikke på den grønne knappen med svart kryss for å zoome inn, på den grønne knappen med strek for å zoome ut, eller på de grønne pilene for å se tilstøtende kart.


METAR-TAF: